Maud, Oklahoma
Current Conditions -  °F | °C
As of 12:35 AM on Wednesday 26 Nov 2014 (Local Time) from KADH Reporting Station
Clear Clear  
Wind Chill: 37°   Ceiling: Unl
Heat Index: 43°   Visibility: 10mi
Dew Point: 32°   Wind: 9mph
Humidity: 66%   Direction: 150°SSE
Pressure: 30.02"   Gusts: NA
Location:  35.13°N, 96.78°W
Report Text: KADH 260635Z AUTO 15008KT 10SM CLR 06/00 A3002 RMK AO2
Loading
Personal Weather Stations






























Interactive Weather Map New forecast layout! Learn more

10-Day Weather Forecast

Advertisements
Track Severe Weather on mobile